sensor_id;sensor_type;location;lat;lon;timestamp;P1;durP1;ratioP1;P2;durP2;ratioP2
11173;SDS011;5643;50.856;12.088;2022-11-20T00:01:55;14.93;;;11.90;;
11173;SDS011;5643;50.856;12.088;2022-11-20T00:04:22;15.43;;;11.83;;
11173;SDS011;5643;50.856;12.088;2022-11-20T00:06:50;14.13;;;11.53;;
11173;SDS011;5643;50.856;12.088;2022-11-20T00:09:18;13.73;;;10.93;;
11173;SDS011;5643;50.856;12.088;2022-11-20T00:11:45;13.07;;;11.20;;
11173;SDS011;5643;50.856;12.088;2022-11-20T00:14:12;14.33;;;11.57;;
11173;SDS011;5643;50.856;12.088;2022-11-20T00:16:39;14.77;;;11.67;;
11173;SDS011;5643;50.856;12.088;2022-11-20T00:19:09;13.33;;;11.17;;
11173;SDS011;5643;50.856;12.088;2022-11-20T00:21:38;13.20;;;10.87;;
11173;SDS011;5643;50.856;12.088;2022-11-20T00:24:07;12.83;;;10.70;;
11173;SDS011;5643;50.856;12.088;2022-11-20T00:26:34;13.33;;;10.80;;
11173;SDS011;5643;50.856;12.088;2022-11-20T00:29:02;12.63;;;10.53;;
11173;SDS011;5643;50.856;12.088;2022-11-20T00:31:30;13.03;;;10.63;;
11173;SDS011;5643;50.856;12.088;2022-11-20T00:33:58;13.37;;;10.10;;
11173;SDS011;5643;50.856;12.088;2022-11-20T00:36:27;11.47;;;10.27;;
11173;SDS011;5643;50.856;12.088;2022-11-20T00:38:55;13.47;;;11.03;;
11173;SDS011;5643;50.856;12.088;2022-11-20T00:41:23;13.27;;;10.80;;
11173;SDS011;5643;50.856;12.088;2022-11-20T00:43:51;12.77;;;10.77;;
11173;SDS011;5643;50.856;12.088;2022-11-20T00:46:20;14.73;;;11.00;;
11173;SDS011;5643;50.856;12.088;2022-11-20T00:48:48;13.57;;;10.73;;
11173;SDS011;5643;50.856;12.088;2022-11-20T00:51:16;12.70;;;10.83;;
11173;SDS011;5643;50.856;12.088;2022-11-20T00:53:45;12.93;;;10.73;;
11173;SDS011;5643;50.856;12.088;2022-11-20T00:56:12;13.03;;;11.03;;
11173;SDS011;5643;50.856;12.088;2022-11-20T00:58:41;12.87;;;10.83;;
11173;SDS011;5643;50.856;12.088;2022-11-20T01:01:10;13.07;;;11.00;;
11173;SDS011;5643;50.856;12.088;2022-11-20T01:03:38;13.60;;;11.20;;
11173;SDS011;5643;50.856;12.088;2022-11-20T01:06:07;12.63;;;10.50;;
11173;SDS011;5643;50.856;12.088;2022-11-20T01:08:35;14.37;;;11.13;;
11173;SDS011;5643;50.856;12.088;2022-11-20T01:11:04;14.33;;;11.90;;
11173;SDS011;5643;50.856;12.088;2022-11-20T01:13:32;14.03;;;11.37;;
11173;SDS011;5643;50.856;12.088;2022-11-20T01:16:05;14.77;;;12.73;;
11173;SDS011;5643;50.856;12.088;2022-11-20T01:18:33;15.07;;;12.27;;
11173;SDS011;5643;50.856;12.088;2022-11-20T01:21:01;14.90;;;11.70;;
11173;SDS011;5643;50.856;12.088;2022-11-20T01:23:33;13.13;;;11.00;;
11173;SDS011;5643;50.856;12.088;2022-11-20T01:26:00;14.83;;;11.27;;
11173;SDS011;5643;50.856;12.088;2022-11-20T01:28:29;13.67;;;11.33;;
11173;SDS011;5643;50.856;12.088;2022-11-20T01:30:57;14.90;;;11.77;;
11173;SDS011;5643;50.856;12.088;2022-11-20T01:33:26;15.13;;;11.53;;
11173;SDS011;5643;50.856;12.088;2022-11-20T01:35:53;14.23;;;11.37;;
11173;SDS011;5643;50.856;12.088;2022-11-20T01:38:29;15.50;;;11.93;;
11173;SDS011;5643;50.856;12.088;2022-11-20T01:40:57;14.87;;;11.93;;
11173;SDS011;5643;50.856;12.088;2022-11-20T01:43:24;14.57;;;11.37;;
11173;SDS011;5643;50.856;12.088;2022-11-20T01:46:05;13.47;;;11.17;;
11173;SDS011;5643;50.856;12.088;2022-11-20T01:48:36;15.90;;;12.33;;
11173;SDS011;5643;50.856;12.088;2022-11-20T01:51:06;14.43;;;11.40;;
11173;SDS011;5643;50.856;12.088;2022-11-20T01:53:37;15.27;;;11.87;;
11173;SDS011;5643;50.856;12.088;2022-11-20T01:56:07;15.20;;;12.10;;
11173;SDS011;5643;50.856;12.088;2022-11-20T01:58:36;14.17;;;11.57;;
11173;SDS011;5643;50.856;12.088;2022-11-20T02:01:06;14.93;;;11.70;;
11173;SDS011;5643;50.856;12.088;2022-11-20T02:03:33;15.93;;;12.37;;
11173;SDS011;5643;50.856;12.088;2022-11-20T02:06:02;15.60;;;12.00;;
11173;SDS011;5643;50.856;12.088;2022-11-20T02:08:32;13.30;;;11.47;;
11173;SDS011;5643;50.856;12.088;2022-11-20T02:10:59;15.40;;;11.73;;
11173;SDS011;5643;50.856;12.088;2022-11-20T02:13:26;15.83;;;11.87;;
11173;SDS011;5643;50.856;12.088;2022-11-20T02:16:13;16.07;;;12.50;;
11173;SDS011;5643;50.856;12.088;2022-11-20T02:18:41;15.20;;;12.77;;
11173;SDS011;5643;50.856;12.088;2022-11-20T02:21:12;15.60;;;12.10;;
11173;SDS011;5643;50.856;12.088;2022-11-20T02:23:51;14.97;;;11.73;;
11173;SDS011;5643;50.856;12.088;2022-11-20T02:26:18;15.70;;;11.87;;
11173;SDS011;5643;50.856;12.088;2022-11-20T02:28:49;16.30;;;12.47;;
11173;SDS011;5643;50.856;12.088;2022-11-20T02:31:16;14.40;;;11.47;;
11173;SDS011;5643;50.856;12.088;2022-11-20T02:33:43;15.13;;;11.90;;
11173;SDS011;5643;50.856;12.088;2022-11-20T02:36:11;16.23;;;11.67;;
11173;SDS011;5643;50.856;12.088;2022-11-20T02:38:41;13.90;;;11.23;;
11173;SDS011;5643;50.856;12.088;2022-11-20T02:41:10;14.07;;;11.17;;
11173;SDS011;5643;50.856;12.088;2022-11-20T02:43:37;13.77;;;11.90;;
11173;SDS011;5643;50.856;12.088;2022-11-20T02:46:07;14.47;;;11.97;;
11173;SDS011;5643;50.856;12.088;2022-11-20T02:48:34;14.37;;;11.80;;
11173;SDS011;5643;50.856;12.088;2022-11-20T02:51:02;15.03;;;11.80;;
11173;SDS011;5643;50.856;12.088;2022-11-20T02:53:29;13.70;;;11.80;;
11173;SDS011;5643;50.856;12.088;2022-11-20T02:55:56;14.10;;;11.63;;
11173;SDS011;5643;50.856;12.088;2022-11-20T02:58:25;13.93;;;11.40;;
11173;SDS011;5643;50.856;12.088;2022-11-20T03:00:52;14.47;;;11.40;;
11173;SDS011;5643;50.856;12.088;2022-11-20T03:03:20;14.80;;;11.57;;
11173;SDS011;5643;50.856;12.088;2022-11-20T03:05:47;14.37;;;11.57;;
11173;SDS011;5643;50.856;12.088;2022-11-20T03:08:15;15.00;;;11.63;;
11173;SDS011;5643;50.856;12.088;2022-11-20T03:10:42;14.67;;;12.20;;
11173;SDS011;5643;50.856;12.088;2022-11-20T03:13:09;14.50;;;11.63;;
11173;SDS011;5643;50.856;12.088;2022-11-20T03:15:38;14.20;;;12.07;;
11173;SDS011;5643;50.856;12.088;2022-11-20T03:18:05;15.83;;;11.87;;
11173;SDS011;5643;50.856;12.088;2022-11-20T03:20:33;14.50;;;11.53;;
11173;SDS011;5643;50.856;12.088;2022-11-20T03:23:00;14.83;;;11.67;;
11173;SDS011;5643;50.856;12.088;2022-11-20T03:25:28;15.50;;;12.00;;
11173;SDS011;5643;50.856;12.088;2022-11-20T03:27:55;16.73;;;12.00;;
11173;SDS011;5643;50.856;12.088;2022-11-20T03:30:22;14.27;;;11.83;;
11173;SDS011;5643;50.856;12.088;2022-11-20T03:32:54;14.00;;;11.50;;
11173;SDS011;5643;50.856;12.088;2022-11-20T03:35:21;15.10;;;12.00;;
11173;SDS011;5643;50.856;12.088;2022-11-20T03:37:49;15.67;;;12.10;;
11173;SDS011;5643;50.856;12.088;2022-11-20T03:40:16;16.77;;;12.60;;
11173;SDS011;5643;50.856;12.088;2022-11-20T03:42:43;14.07;;;11.83;;
11173;SDS011;5643;50.856;12.088;2022-11-20T03:45:14;15.30;;;11.87;;
11173;SDS011;5643;50.856;12.088;2022-11-20T03:47:42;15.07;;;12.47;;
11173;SDS011;5643;50.856;12.088;2022-11-20T03:50:11;13.80;;;11.60;;
11173;SDS011;5643;50.856;12.088;2022-11-20T03:52:39;15.47;;;12.00;;
11173;SDS011;5643;50.856;12.088;2022-11-20T03:55:07;14.67;;;11.97;;
11173;SDS011;5643;50.856;12.088;2022-11-20T03:57:35;14.67;;;11.63;;
11173;SDS011;5643;50.856;12.088;2022-11-20T04:00:03;16.17;;;12.83;;
11173;SDS011;5643;50.856;12.088;2022-11-20T04:02:30;13.90;;;11.23;;
11173;SDS011;5643;50.856;12.088;2022-11-20T04:04:57;16.13;;;12.13;;
11173;SDS011;5643;50.856;12.088;2022-11-20T04:07:26;14.07;;;11.63;;
11173;SDS011;5643;50.856;12.088;2022-11-20T04:09:53;13.83;;;11.03;;
11173;SDS011;5643;50.856;12.088;2022-11-20T04:12:20;14.20;;;12.00;;
11173;SDS011;5643;50.856;12.088;2022-11-20T04:14:47;15.17;;;11.60;;
11173;SDS011;5643;50.856;12.088;2022-11-20T04:17:15;14.87;;;11.47;;
11173;SDS011;5643;50.856;12.088;2022-11-20T04:19:42;16.63;;;12.57;;
11173;SDS011;5643;50.856;12.088;2022-11-20T04:22:09;15.47;;;11.70;;
11173;SDS011;5643;50.856;12.088;2022-11-20T04:24:39;15.00;;;12.37;;
11173;SDS011;5643;50.856;12.088;2022-11-20T04:27:07;16.10;;;11.97;;
11173;SDS011;5643;50.856;12.088;2022-11-20T04:29:34;16.53;;;12.33;;
11173;SDS011;5643;50.856;12.088;2022-11-20T04:32:02;14.20;;;11.40;;
11173;SDS011;5643;50.856;12.088;2022-11-20T04:34:29;17.03;;;12.67;;
11173;SDS011;5643;50.856;12.088;2022-11-20T04:36:56;15.73;;;12.00;;
11173;SDS011;5643;50.856;12.088;2022-11-20T04:39:23;15.23;;;11.87;;
11173;SDS011;5643;50.856;12.088;2022-11-20T04:41:52;13.97;;;11.57;;
11173;SDS011;5643;50.856;12.088;2022-11-20T04:44:40;15.03;;;12.37;;
11173;SDS011;5643;50.856;12.088;2022-11-20T04:47:07;16.13;;;12.20;;
11173;SDS011;5643;50.856;12.088;2022-11-20T04:49:34;15.47;;;12.07;;
11173;SDS011;5643;50.856;12.088;2022-11-20T04:52:02;16.27;;;12.03;;
11173;SDS011;5643;50.856;12.088;2022-11-20T04:54:29;14.87;;;12.13;;
11173;SDS011;5643;50.856;12.088;2022-11-20T04:56:59;15.93;;;12.53;;
11173;SDS011;5643;50.856;12.088;2022-11-20T04:59:26;14.60;;;11.37;;
11173;SDS011;5643;50.856;12.088;2022-11-20T05:01:53;14.73;;;11.50;;
11173;SDS011;5643;50.856;12.088;2022-11-20T05:04:20;15.70;;;11.97;;
11173;SDS011;5643;50.856;12.088;2022-11-20T05:06:47;14.67;;;11.93;;
11173;SDS011;5643;50.856;12.088;2022-11-20T05:09:16;14.57;;;11.63;;
11173;SDS011;5643;50.856;12.088;2022-11-20T05:11:43;16.63;;;12.57;;
11173;SDS011;5643;50.856;12.088;2022-11-20T05:14:11;14.27;;;11.60;;
11173;SDS011;5643;50.856;12.088;2022-11-20T05:16:39;14.73;;;11.30;;
11173;SDS011;5643;50.856;12.088;2022-11-20T05:19:06;15.33;;;12.40;;
11173;SDS011;5643;50.856;12.088;2022-11-20T05:21:34;15.50;;;12.23;;
11173;SDS011;5643;50.856;12.088;2022-11-20T05:24:01;14.13;;;11.13;;
11173;SDS011;5643;50.856;12.088;2022-11-20T05:26:28;13.87;;;11.13;;
11173;SDS011;5643;50.856;12.088;2022-11-20T05:28:57;13.90;;;11.23;;
11173;SDS011;5643;50.856;12.088;2022-11-20T05:31:26;14.67;;;11.90;;
11173;SDS011;5643;50.856;12.088;2022-11-20T05:33:53;15.50;;;12.23;;
11173;SDS011;5643;50.856;12.088;2022-11-20T05:36:20;14.83;;;11.93;;
11173;SDS011;5643;50.856;12.088;2022-11-20T05:38:48;15.23;;;11.83;;
11173;SDS011;5643;50.856;12.088;2022-11-20T05:41:16;16.07;;;12.70;;
11173;SDS011;5643;50.856;12.088;2022-11-20T05:43:44;14.67;;;11.70;;
11173;SDS011;5643;50.856;12.088;2022-11-20T05:46:12;13.97;;;11.60;;
11173;SDS011;5643;50.856;12.088;2022-11-20T05:48:42;14.83;;;11.60;;
11173;SDS011;5643;50.856;12.088;2022-11-20T05:51:10;15.10;;;11.83;;
11173;SDS011;5643;50.856;12.088;2022-11-20T05:53:38;14.90;;;10.83;;
11173;SDS011;5643;50.856;12.088;2022-11-20T05:56:06;15.23;;;11.50;;
11173;SDS011;5643;50.856;12.088;2022-11-20T05:58:35;15.60;;;12.30;;
11173;SDS011;5643;50.856;12.088;2022-11-20T06:01:03;15.73;;;12.53;;
11173;SDS011;5643;50.856;12.088;2022-11-20T06:03:31;15.33;;;11.77;;
11173;SDS011;5643;50.856;12.088;2022-11-20T06:05:59;15.10;;;12.33;;
11173;SDS011;5643;50.856;12.088;2022-11-20T06:08:27;15.17;;;11.70;;
11173;SDS011;5643;50.856;12.088;2022-11-20T06:10:55;14.57;;;11.87;;
11173;SDS011;5643;50.856;12.088;2022-11-20T06:13:22;15.80;;;12.63;;
11173;SDS011;5643;50.856;12.088;2022-11-20T06:15:49;15.33;;;11.87;;
11173;SDS011;5643;50.856;12.088;2022-11-20T06:18:16;14.47;;;12.00;;
11173;SDS011;5643;50.856;12.088;2022-11-20T06:20:44;15.00;;;11.87;;
11173;SDS011;5643;50.856;12.088;2022-11-20T06:23:13;15.43;;;11.60;;
11173;SDS011;5643;50.856;12.088;2022-11-20T06:25:40;14.73;;;11.67;;
11173;SDS011;5643;50.856;12.088;2022-11-20T06:28:08;15.23;;;11.37;;
11173;SDS011;5643;50.856;12.088;2022-11-20T06:30:37;15.60;;;12.00;;
11173;SDS011;5643;50.856;12.088;2022-11-20T06:33:04;12.60;;;10.50;;
11173;SDS011;5643;50.856;12.088;2022-11-20T06:35:31;14.70;;;11.47;;
11173;SDS011;5643;50.856;12.088;2022-11-20T06:37:59;14.93;;;11.97;;
11173;SDS011;5643;50.856;12.088;2022-11-20T06:40:27;13.83;;;11.00;;
11173;SDS011;5643;50.856;12.088;2022-11-20T06:42:54;16.23;;;11.70;;
11173;SDS011;5643;50.856;12.088;2022-11-20T06:45:21;13.97;;;11.07;;
11173;SDS011;5643;50.856;12.088;2022-11-20T06:47:49;12.77;;;10.30;;
11173;SDS011;5643;50.856;12.088;2022-11-20T06:50:16;12.93;;;10.63;;
11173;SDS011;5643;50.856;12.088;2022-11-20T06:52:43;13.23;;;10.20;;
11173;SDS011;5643;50.856;12.088;2022-11-20T06:55:10;12.83;;;10.47;;
11173;SDS011;5643;50.856;12.088;2022-11-20T06:57:39;14.07;;;11.10;;
11173;SDS011;5643;50.856;12.088;2022-11-20T07:00:07;15.07;;;10.60;;
11173;SDS011;5643;50.856;12.088;2022-11-20T07:02:34;15.40;;;11.63;;
11173;SDS011;5643;50.856;12.088;2022-11-20T07:05:02;13.03;;;10.10;;
11173;SDS011;5643;50.856;12.088;2022-11-20T07:07:35;13.83;;;10.80;;
11173;SDS011;5643;50.856;12.088;2022-11-20T07:10:03;16.07;;;10.93;;
11173;SDS011;5643;50.856;12.088;2022-11-20T07:12:30;14.90;;;11.20;;
11173;SDS011;5643;50.856;12.088;2022-11-20T07:14:59;17.80;;;13.10;;
11173;SDS011;5643;50.856;12.088;2022-11-20T07:17:26;14.97;;;11.30;;
11173;SDS011;5643;50.856;12.088;2022-11-20T07:19:53;15.27;;;11.63;;
11173;SDS011;5643;50.856;12.088;2022-11-20T07:22:20;15.63;;;11.30;;
11173;SDS011;5643;50.856;12.088;2022-11-20T07:24:48;14.60;;;10.90;;
11173;SDS011;5643;50.856;12.088;2022-11-20T07:27:15;14.43;;;11.27;;
11173;SDS011;5643;50.856;12.088;2022-11-20T07:29:43;13.70;;;11.10;;
11173;SDS011;5643;50.856;12.088;2022-11-20T07:32:11;14.77;;;11.97;;
11173;SDS011;5643;50.856;12.088;2022-11-20T07:34:38;14.40;;;11.53;;
11173;SDS011;5643;50.856;12.088;2022-11-20T07:37:06;14.60;;;11.90;;
11173;SDS011;5643;50.856;12.088;2022-11-20T07:39:33;14.30;;;11.57;;
11173;SDS011;5643;50.856;12.088;2022-11-20T07:42:01;15.03;;;11.30;;
11173;SDS011;5643;50.856;12.088;2022-11-20T07:44:28;13.90;;;11.23;;
11173;SDS011;5643;50.856;12.088;2022-11-20T07:46:55;15.60;;;11.67;;
11173;SDS011;5643;50.856;12.088;2022-11-20T07:49:27;14.57;;;11.83;;
11173;SDS011;5643;50.856;12.088;2022-11-20T07:51:55;15.73;;;12.43;;
11173;SDS011;5643;50.856;12.088;2022-11-20T07:54:22;14.43;;;11.93;;
11173;SDS011;5643;50.856;12.088;2022-11-20T07:56:49;14.67;;;12.00;;
11173;SDS011;5643;50.856;12.088;2022-11-20T07:59:17;15.60;;;12.30;;
11173;SDS011;5643;50.856;12.088;2022-11-20T08:01:44;29.20;;;20.10;;
11173;SDS011;5643;50.856;12.088;2022-11-20T08:04:11;42.60;;;28.50;;
11173;SDS011;5643;50.856;12.088;2022-11-20T08:06:42;45.07;;;29.27;;
11173;SDS011;5643;50.856;12.088;2022-11-20T08:09:10;38.30;;;24.60;;
11173;SDS011;5643;50.856;12.088;2022-11-20T08:11:37;29.60;;;21.53;;
11173;SDS011;5643;50.856;12.088;2022-11-20T08:14:22;24.90;;;18.17;;
11173;SDS011;5643;50.856;12.088;2022-11-20T08:16:49;21.27;;;16.10;;
11173;SDS011;5643;50.856;12.088;2022-11-20T08:19:17;19.93;;;14.83;;
11173;SDS011;5643;50.856;12.088;2022-11-20T08:21:46;17.20;;;13.83;;
11173;SDS011;5643;50.856;12.088;2022-11-20T08:24:14;16.43;;;13.33;;
11173;SDS011;5643;50.856;12.088;2022-11-20T08:26:42;17.93;;;13.67;;
11173;SDS011;5643;50.856;12.088;2022-11-20T08:29:09;16.37;;;12.53;;
11173;SDS011;5643;50.856;12.088;2022-11-20T08:31:36;15.40;;;12.33;;
11173;SDS011;5643;50.856;12.088;2022-11-20T08:34:03;15.50;;;12.40;;
11173;SDS011;5643;50.856;12.088;2022-11-20T08:36:32;16.50;;;13.30;;
11173;SDS011;5643;50.856;12.088;2022-11-20T08:39:01;15.47;;;12.40;;
11173;SDS011;5643;50.856;12.088;2022-11-20T08:41:29;17.77;;;13.37;;
11173;SDS011;5643;50.856;12.088;2022-11-20T08:43:59;15.47;;;11.93;;
11173;SDS011;5643;50.856;12.088;2022-11-20T08:46:27;17.27;;;13.37;;
11173;SDS011;5643;50.856;12.088;2022-11-20T08:48:55;15.80;;;13.13;;
11173;SDS011;5643;50.856;12.088;2022-11-20T08:51:22;16.27;;;13.03;;
11173;SDS011;5643;50.856;12.088;2022-11-20T08:53:49;16.47;;;13.10;;
11173;SDS011;5643;50.856;12.088;2022-11-20T08:56:18;15.67;;;12.27;;
11173;SDS011;5643;50.856;12.088;2022-11-20T08:58:46;17.57;;;13.60;;
11173;SDS011;5643;50.856;12.088;2022-11-20T09:01:13;17.50;;;13.57;;
11173;SDS011;5643;50.856;12.088;2022-11-20T09:03:41;16.63;;;13.23;;
11173;SDS011;5643;50.856;12.088;2022-11-20T09:06:09;15.73;;;12.77;;
11173;SDS011;5643;50.856;12.088;2022-11-20T09:08:36;15.97;;;13.07;;
11173;SDS011;5643;50.856;12.088;2022-11-20T09:11:03;18.90;;;14.67;;
11173;SDS011;5643;50.856;12.088;2022-11-20T09:13:32;17.43;;;13.87;;
11173;SDS011;5643;50.856;12.088;2022-11-20T09:16:00;16.20;;;13.00;;
11173;SDS011;5643;50.856;12.088;2022-11-20T09:18:28;17.33;;;13.90;;
11173;SDS011;5643;50.856;12.088;2022-11-20T09:20:57;18.13;;;14.33;;
11173;SDS011;5643;50.856;12.088;2022-11-20T09:23:25;23.00;;;17.67;;
11173;SDS011;5643;50.856;12.088;2022-11-20T09:25:52;22.63;;;17.57;;
11173;SDS011;5643;50.856;12.088;2022-11-20T09:28:22;20.00;;;15.70;;
11173;SDS011;5643;50.856;12.088;2022-11-20T09:30:50;18.53;;;15.30;;
11173;SDS011;5643;50.856;12.088;2022-11-20T09:33:18;19.23;;;15.67;;
11173;SDS011;5643;50.856;12.088;2022-11-20T09:35:45;18.93;;;15.03;;
11173;SDS011;5643;50.856;12.088;2022-11-20T09:38:13;17.20;;;14.70;;
11173;SDS011;5643;50.856;12.088;2022-11-20T09:40:43;16.57;;;13.47;;
11173;SDS011;5643;50.856;12.088;2022-11-20T09:43:12;16.80;;;13.43;;
11173;SDS011;5643;50.856;12.088;2022-11-20T09:45:49;17.63;;;14.00;;
11173;SDS011;5643;50.856;12.088;2022-11-20T09:48:20;16.50;;;14.23;;
11173;SDS011;5643;50.856;12.088;2022-11-20T09:50:52;18.83;;;15.37;;
11173;SDS011;5643;50.856;12.088;2022-11-20T09:53:25;16.70;;;14.47;;
11173;SDS011;5643;50.856;12.088;2022-11-20T09:55:57;16.37;;;14.40;;
11173;SDS011;5643;50.856;12.088;2022-11-20T09:58:28;14.77;;;13.13;;
11173;SDS011;5643;50.856;12.088;2022-11-20T10:00:59;14.37;;;12.67;;
11173;SDS011;5643;50.856;12.088;2022-11-20T10:03:33;18.37;;;15.83;;
11173;SDS011;5643;50.856;12.088;2022-11-20T10:06:03;17.70;;;15.63;;
11173;SDS011;5643;50.856;12.088;2022-11-20T10:08:34;19.47;;;16.13;;
11173;SDS011;5643;50.856;12.088;2022-11-20T10:11:08;17.23;;;14.73;;
11173;SDS011;5643;50.856;12.088;2022-11-20T10:13:42;15.60;;;13.77;;
11173;SDS011;5643;50.856;12.088;2022-11-20T10:16:18;16.13;;;13.77;;
11173;SDS011;5643;50.856;12.088;2022-11-20T10:18:57;16.00;;;13.83;;
11173;SDS011;5643;50.856;12.088;2022-11-20T10:21:29;16.50;;;14.73;;
11173;SDS011;5643;50.856;12.088;2022-11-20T10:26:43;15.60;;;14.00;;
11173;SDS011;5643;50.856;12.088;2022-11-20T10:29:13;15.23;;;13.63;;
11173;SDS011;5643;50.856;12.088;2022-11-20T10:31:41;14.73;;;12.80;;
11173;SDS011;5643;50.856;12.088;2022-11-20T10:34:16;15.87;;;13.97;;
11173;SDS011;5643;50.856;12.088;2022-11-20T10:36:46;16.80;;;15.07;;
11173;SDS011;5643;50.856;12.088;2022-11-20T10:39:17;16.63;;;14.83;;
11173;SDS011;5643;50.856;12.088;2022-11-20T10:41:46;18.13;;;15.70;;
11173;SDS011;5643;50.856;12.088;2022-11-20T10:44:17;15.43;;;13.63;;
11173;SDS011;5643;50.856;12.088;2022-11-20T10:47:11;15.67;;;14.03;;
11173;SDS011;5643;50.856;12.088;2022-11-20T10:49:40;16.27;;;14.27;;
11173;SDS011;5643;50.856;12.088;2022-11-20T10:52:09;18.37;;;16.40;;
11173;SDS011;5643;50.856;12.088;2022-11-20T10:54:42;18.37;;;16.43;;
11173;SDS011;5643;50.856;12.088;2022-11-20T10:57:15;18.93;;;16.73;;
11173;SDS011;5643;50.856;12.088;2022-11-20T10:59:49;20.73;;;18.53;;
11173;SDS011;5643;50.856;12.088;2022-11-20T11:02:20;21.37;;;18.33;;
11173;SDS011;5643;50.856;12.088;2022-11-20T11:04:49;21.53;;;18.57;;
11173;SDS011;5643;50.856;12.088;2022-11-20T11:07:19;20.03;;;17.27;;
11173;SDS011;5643;50.856;12.088;2022-11-20T11:09:47;21.13;;;18.83;;
11173;SDS011;5643;50.856;12.088;2022-11-20T11:12:16;19.97;;;17.27;;
11173;SDS011;5643;50.856;12.088;2022-11-20T11:14:44;19.43;;;16.67;;
11173;SDS011;5643;50.856;12.088;2022-11-20T11:17:20;16.90;;;15.10;;
11173;SDS011;5643;50.856;12.088;2022-11-20T11:19:57;18.77;;;16.77;;
11173;SDS011;5643;50.856;12.088;2022-11-20T11:22:25;20.13;;;17.13;;
11173;SDS011;5643;50.856;12.088;2022-11-20T11:24:52;22.23;;;19.30;;
11173;SDS011;5643;50.856;12.088;2022-11-20T11:27:20;20.27;;;18.07;;
11173;SDS011;5643;50.856;12.088;2022-11-20T11:29:48;18.70;;;16.70;;
11173;SDS011;5643;50.856;12.088;2022-11-20T11:32:16;19.20;;;17.13;;
11173;SDS011;5643;50.856;12.088;2022-11-20T11:34:44;18.33;;;16.43;;
11173;SDS011;5643;50.856;12.088;2022-11-20T11:37:15;17.20;;;15.40;;
11173;SDS011;5643;50.856;12.088;2022-11-20T11:39:44;17.93;;;15.53;;
11173;SDS011;5643;50.856;12.088;2022-11-20T11:42:15;17.10;;;15.30;;
11173;SDS011;5643;50.856;12.088;2022-11-20T11:44:44;15.77;;;14.07;;
11173;SDS011;5643;50.856;12.088;2022-11-20T11:47:30;15.20;;;13.60;;
11173;SDS011;5643;50.856;12.088;2022-11-20T11:52:46;13.67;;;12.27;;
11173;SDS011;5643;50.856;12.088;2022-11-20T11:55:16;13.87;;;12.47;;
11173;SDS011;5643;50.856;12.088;2022-11-20T11:57:46;14.90;;;13.17;;
11173;SDS011;5643;50.856;12.088;2022-11-20T12:00:16;14.50;;;13.00;;
11173;SDS011;5643;50.856;12.088;2022-11-20T12:02:48;14.47;;;12.90;;
11173;SDS011;5643;50.856;12.088;2022-11-20T12:05:23;16.67;;;14.30;;
11173;SDS011;5643;50.856;12.088;2022-11-20T12:07:53;14.63;;;13.13;;
11173;SDS011;5643;50.856;12.088;2022-11-20T12:10:21;14.07;;;12.67;;
11173;SDS011;5643;50.856;12.088;2022-11-20T12:12:50;13.47;;;12.13;;
11173;SDS011;5643;50.856;12.088;2022-11-20T12:15:29;13.33;;;12.03;;
11173;SDS011;5643;50.856;12.088;2022-11-20T12:17:57;13.07;;;11.67;;
11173;SDS011;5643;50.856;12.088;2022-11-20T12:20:24;13.33;;;12.03;;
11173;SDS011;5643;50.856;12.088;2022-11-20T12:22:56;12.53;;;11.23;;
11173;SDS011;5643;50.856;12.088;2022-11-20T12:25:29;12.30;;;11.10;;
11173;SDS011;5643;50.856;12.088;2022-11-20T12:28:10;12.27;;;10.93;;
11173;SDS011;5643;50.856;12.088;2022-11-20T12:30:41;11.73;;;10.53;;
11173;SDS011;5643;50.856;12.088;2022-11-20T12:33:20;11.17;;;10.07;;
11173;SDS011;5643;50.856;12.088;2022-11-20T12:36:06;12.20;;;11.00;;
11173;SDS011;5643;50.856;12.088;2022-11-20T12:38:48;12.50;;;11.20;;
11173;SDS011;5643;50.856;12.088;2022-11-20T12:41:19;12.23;;;11.03;;
11173;SDS011;5643;50.856;12.088;2022-11-20T12:44:07;13.17;;;11.77;;
11173;SDS011;5643;50.856;12.088;2022-11-20T12:46:56;13.07;;;11.77;;
11173;SDS011;5643;50.856;12.088;2022-11-20T12:49:28;12.60;;;11.40;;
11173;SDS011;5643;50.856;12.088;2022-11-20T12:52:13;11.63;;;10.53;;
11173;SDS011;5643;50.856;12.088;2022-11-20T12:57:28;11.87;;;10.67;;
11173;SDS011;5643;50.856;12.088;2022-11-20T13:00:07;12.73;;;11.37;;
11173;SDS011;5643;50.856;12.088;2022-11-20T13:02:39;12.50;;;11.30;;
11173;SDS011;5643;50.856;12.088;2022-11-20T13:05:15;12.50;;;11.30;;
11173;SDS011;5643;50.856;12.088;2022-11-20T13:07:45;12.47;;;11.17;;
11173;SDS011;5643;50.856;12.088;2022-11-20T13:10:14;12.07;;;10.87;;
11173;SDS011;5643;50.856;12.088;2022-11-20T13:12:47;12.90;;;11.60;;
11173;SDS011;5643;50.856;12.088;2022-11-20T13:15:21;13.10;;;11.80;;
11173;SDS011;5643;50.856;12.088;2022-11-20T13:17:50;11.80;;;10.63;;
11173;SDS011;5643;50.856;12.088;2022-11-20T13:20:19;12.77;;;11.47;;
11173;SDS011;5643;50.856;12.088;2022-11-20T13:22:48;12.00;;;10.80;;
11173;SDS011;5643;50.856;12.088;2022-11-20T13:25:23;11.93;;;10.73;;
11173;SDS011;5643;50.856;12.088;2022-11-20T13:27:52;12.87;;;11.57;;
11173;SDS011;5643;50.856;12.088;2022-11-20T13:30:20;11.33;;;10.23;;
11173;SDS011;5643;50.856;12.088;2022-11-20T13:32:51;10.63;;;9.60;;
11173;SDS011;5643;50.856;12.088;2022-11-20T13:35:26;9.73;;;8.83;;
11173;SDS011;5643;50.856;12.088;2022-11-20T13:38:01;9.20;;;8.30;;
11173;SDS011;5643;50.856;12.088;2022-11-20T13:40:29;9.17;;;8.27;;
11173;SDS011;5643;50.856;12.088;2022-11-20T13:43:04;11.43;;;10.23;;
11173;SDS011;5643;50.856;12.088;2022-11-20T13:45:35;12.87;;;11.57;;
11173;SDS011;5643;50.856;12.088;2022-11-20T13:48:03;10.57;;;9.47;;
11173;SDS011;5643;50.856;12.088;2022-11-20T13:50:39;11.07;;;9.97;;
11173;SDS011;5643;50.856;12.088;2022-11-20T13:53:09;10.80;;;9.70;;
11173;SDS011;5643;50.856;12.088;2022-11-20T13:55:42;9.60;;;8.70;;
11173;SDS011;5643;50.856;12.088;2022-11-20T13:58:18;9.20;;;8.30;;
11173;SDS011;5643;50.856;12.088;2022-11-20T14:00:51;9.93;;;8.93;;
11173;SDS011;5643;50.856;12.088;2022-11-20T14:03:20;10.40;;;9.37;;
11173;SDS011;5643;50.856;12.088;2022-11-20T14:05:49;10.07;;;9.07;;
11173;SDS011;5643;50.856;12.088;2022-11-20T14:08:23;9.17;;;8.27;;
11173;SDS011;5643;50.856;12.088;2022-11-20T14:11:01;9.03;;;8.10;;
11173;SDS011;5643;50.856;12.088;2022-11-20T14:13:30;9.03;;;8.13;;
11173;SDS011;5643;50.856;12.088;2022-11-20T14:15:58;10.70;;;9.60;;
11173;SDS011;5643;50.856;12.088;2022-11-20T14:18:25;10.27;;;9.13;;
11173;SDS011;5643;50.856;12.088;2022-11-20T14:20:54;9.70;;;8.70;;
11173;SDS011;5643;50.856;12.088;2022-11-20T14:23:25;9.33;;;8.40;;
11173;SDS011;5643;50.856;12.088;2022-11-20T14:25:55;9.93;;;8.93;;
11173;SDS011;5643;50.856;12.088;2022-11-20T14:28:25;10.10;;;9.07;;
11173;SDS011;5643;50.856;12.088;2022-11-20T14:30:57;9.93;;;9.03;;
11173;SDS011;5643;50.856;12.088;2022-11-20T14:33:25;9.57;;;8.57;;
11173;SDS011;5643;50.856;12.088;2022-11-20T14:35:53;10.00;;;9.00;;
11173;SDS011;5643;50.856;12.088;2022-11-20T14:38:22;10.33;;;9.23;;
11173;SDS011;5643;50.856;12.088;2022-11-20T14:40:50;10.60;;;9.60;;
11173;SDS011;5643;50.856;12.088;2022-11-20T14:43:20;10.87;;;9.77;;
11173;SDS011;5643;50.856;12.088;2022-11-20T14:45:55;10.53;;;9.43;;